sensor_id;sensor_type;location;lat;lon;timestamp;P1;durP1;ratioP1;P2;durP2;ratioP2
21810;SDS011;11067;48.788;9.208;2022-10-31T00:02:19;14.20;;;6.67;;
21810;SDS011;11067;48.788;9.208;2022-10-31T00:04:45;11.85;;;6.93;;
21810;SDS011;11067;48.788;9.208;2022-10-31T00:07:10;11.57;;;6.90;;
21810;SDS011;11067;48.788;9.208;2022-10-31T00:09:36;9.43;;;6.03;;
21810;SDS011;11067;48.788;9.208;2022-10-31T00:12:02;16.95;;;6.35;;
21810;SDS011;11067;48.788;9.208;2022-10-31T00:14:27;11.13;;;6.03;;
21810;SDS011;11067;48.788;9.208;2022-10-31T00:16:53;9.60;;;5.93;;
21810;SDS011;11067;48.788;9.208;2022-10-31T00:19:18;17.98;;;6.65;;
21810;SDS011;11067;48.788;9.208;2022-10-31T00:21:44;11.27;;;6.33;;
21810;SDS011;11067;48.788;9.208;2022-10-31T00:24:10;11.13;;;6.13;;
21810;SDS011;11067;48.788;9.208;2022-10-31T00:26:35;10.85;;;6.03;;
21810;SDS011;11067;48.788;9.208;2022-10-31T00:29:01;13.40;;;6.53;;
21810;SDS011;11067;48.788;9.208;2022-10-31T00:31:27;14.23;;;6.65;;
21810;SDS011;11067;48.788;9.208;2022-10-31T00:33:53;14.13;;;6.47;;
21810;SDS011;11067;48.788;9.208;2022-10-31T00:36:19;10.80;;;6.50;;
21810;SDS011;11067;48.788;9.208;2022-10-31T00:38:45;11.90;;;7.03;;
21810;SDS011;11067;48.788;9.208;2022-10-31T00:41:12;14.40;;;7.40;;
21810;SDS011;11067;48.788;9.208;2022-10-31T00:43:39;14.07;;;6.53;;
21810;SDS011;11067;48.788;9.208;2022-10-31T00:46:05;12.35;;;6.45;;
21810;SDS011;11067;48.788;9.208;2022-10-31T00:48:31;14.68;;;6.78;;
21810;SDS011;11067;48.788;9.208;2022-10-31T00:50:56;14.47;;;7.10;;
21810;SDS011;11067;48.788;9.208;2022-10-31T00:53:22;10.53;;;6.77;;
21810;SDS011;11067;48.788;9.208;2022-10-31T00:55:47;12.57;;;7.30;;
21810;SDS011;11067;48.788;9.208;2022-10-31T00:58:13;14.20;;;6.88;;
21810;SDS011;11067;48.788;9.208;2022-10-31T01:00:39;13.10;;;6.57;;
21810;SDS011;11067;48.788;9.208;2022-10-31T01:03:05;11.93;;;6.18;;
21810;SDS011;11067;48.788;9.208;2022-10-31T01:05:30;13.43;;;6.30;;
21810;SDS011;11067;48.788;9.208;2022-10-31T01:07:56;17.70;;;10.57;;
21810;SDS011;11067;48.788;9.208;2022-10-31T01:10:22;9.45;;;6.68;;
21810;SDS011;11067;48.788;9.208;2022-10-31T01:12:48;11.00;;;6.60;;
21810;SDS011;11067;48.788;9.208;2022-10-31T01:15:15;10.35;;;6.28;;
21810;SDS011;11067;48.788;9.208;2022-10-31T01:17:42;10.75;;;6.72;;
21810;SDS011;11067;48.788;9.208;2022-10-31T01:20:08;10.85;;;6.78;;
21810;SDS011;11067;48.788;9.208;2022-10-31T01:22:35;14.32;;;6.82;;
21810;SDS011;11067;48.788;9.208;2022-10-31T01:25:01;12.33;;;6.27;;
21810;SDS011;11067;48.788;9.208;2022-10-31T01:27:26;12.57;;;6.60;;
21810;SDS011;11067;48.788;9.208;2022-10-31T01:29:52;8.80;;;6.10;;
21810;SDS011;11067;48.788;9.208;2022-10-31T01:32:18;9.68;;;5.95;;
21810;SDS011;11067;48.788;9.208;2022-10-31T01:34:43;12.07;;;6.67;;
21810;SDS011;11067;48.788;9.208;2022-10-31T01:37:09;12.17;;;6.60;;
21810;SDS011;11067;48.788;9.208;2022-10-31T01:39:34;13.30;;;6.50;;
21810;SDS011;11067;48.788;9.208;2022-10-31T01:42:00;11.43;;;6.20;;
21810;SDS011;11067;48.788;9.208;2022-10-31T01:46:57;14.33;;;6.90;;
21810;SDS011;11067;48.788;9.208;2022-10-31T01:49:34;12.38;;;6.00;;
21810;SDS011;11067;48.788;9.208;2022-10-31T01:57:35;10.45;;;6.22;;
21810;SDS011;11067;48.788;9.208;2022-10-31T02:00:06;13.27;;;6.70;;
21810;SDS011;11067;48.788;9.208;2022-10-31T02:02:33;11.43;;;6.53;;
21810;SDS011;11067;48.788;9.208;2022-10-31T02:05:00;12.10;;;6.60;;
21810;SDS011;11067;48.788;9.208;2022-10-31T02:07:39;13.57;;;7.00;;
21810;SDS011;11067;48.788;9.208;2022-10-31T02:10:21;11.52;;;7.18;;
21810;SDS011;11067;48.788;9.208;2022-10-31T02:12:50;15.67;;;6.60;;
21810;SDS011;11067;48.788;9.208;2022-10-31T02:15:18;10.65;;;6.32;;
21810;SDS011;11067;48.788;9.208;2022-10-31T02:17:44;12.15;;;6.57;;
21810;SDS011;11067;48.788;9.208;2022-10-31T02:20:17;10.90;;;6.85;;
21810;SDS011;11067;48.788;9.208;2022-10-31T02:25:46;11.63;;;7.03;;
21810;SDS011;11067;48.788;9.208;2022-10-31T02:31:27;13.73;;;6.78;;
21810;SDS011;11067;48.788;9.208;2022-10-31T02:37:06;11.13;;;6.75;;
21810;SDS011;11067;48.788;9.208;2022-10-31T02:40:18;10.43;;;6.20;;
21810;SDS011;11067;48.788;9.208;2022-10-31T02:48:12;14.50;;;7.03;;
21810;SDS011;11067;48.788;9.208;2022-10-31T02:50:45;11.93;;;6.90;;
21810;SDS011;11067;48.788;9.208;2022-10-31T02:53:17;9.68;;;6.32;;
21810;SDS011;11067;48.788;9.208;2022-10-31T02:55:57;10.82;;;6.38;;
21810;SDS011;11067;48.788;9.208;2022-10-31T02:58:26;10.30;;;6.22;;
21810;SDS011;11067;48.788;9.208;2022-10-31T03:06:49;14.43;;;7.22;;
21810;SDS011;11067;48.788;9.208;2022-10-31T03:09:27;13.40;;;7.22;;
21810;SDS011;11067;48.788;9.208;2022-10-31T03:12:17;11.07;;;6.68;;
21810;SDS011;11067;48.788;9.208;2022-10-31T03:15:12;10.05;;;6.15;;
21810;SDS011;11067;48.788;9.208;2022-10-31T03:20:21;12.32;;;6.78;;
21810;SDS011;11067;48.788;9.208;2022-10-31T03:23:11;13.95;;;6.90;;
21810;SDS011;11067;48.788;9.208;2022-10-31T03:25:39;11.52;;;6.07;;
21810;SDS011;11067;48.788;9.208;2022-10-31T03:28:06;10.57;;;6.20;;
21810;SDS011;11067;48.788;9.208;2022-10-31T03:30:33;13.20;;;6.77;;
21810;SDS011;11067;48.788;9.208;2022-10-31T03:33:03;9.95;;;6.22;;
21810;SDS011;11067;48.788;9.208;2022-10-31T03:35:34;12.37;;;6.77;;
21810;SDS011;11067;48.788;9.208;2022-10-31T03:38:01;12.57;;;6.50;;
21810;SDS011;11067;48.788;9.208;2022-10-31T03:40:28;12.77;;;6.57;;
21810;SDS011;11067;48.788;9.208;2022-10-31T03:42:57;11.35;;;6.60;;
21810;SDS011;11067;48.788;9.208;2022-10-31T03:45:29;10.83;;;6.50;;
21810;SDS011;11067;48.788;9.208;2022-10-31T03:47:55;9.93;;;6.18;;
21810;SDS011;11067;48.788;9.208;2022-10-31T03:50:24;14.90;;;6.55;;
21810;SDS011;11067;48.788;9.208;2022-10-31T03:52:57;13.20;;;7.03;;
21810;SDS011;11067;48.788;9.208;2022-10-31T03:55:30;9.50;;;6.60;;
21810;SDS011;11067;48.788;9.208;2022-10-31T03:58:06;9.65;;;6.40;;
21810;SDS011;11067;48.788;9.208;2022-10-31T04:00:45;13.63;;;6.40;;
21810;SDS011;11067;48.788;9.208;2022-10-31T04:03:14;11.87;;;6.83;;
21810;SDS011;11067;48.788;9.208;2022-10-31T04:05:45;11.43;;;6.47;;
21810;SDS011;11067;48.788;9.208;2022-10-31T04:08:14;11.55;;;6.63;;
21810;SDS011;11067;48.788;9.208;2022-10-31T04:10:43;19.10;;;7.00;;
21810;SDS011;11067;48.788;9.208;2022-10-31T04:13:13;14.68;;;7.30;;
21810;SDS011;11067;48.788;9.208;2022-10-31T04:15:41;12.25;;;6.82;;
21810;SDS011;11067;48.788;9.208;2022-10-31T04:18:08;11.63;;;6.53;;
21810;SDS011;11067;48.788;9.208;2022-10-31T04:20:35;9.77;;;6.00;;
21810;SDS011;11067;48.788;9.208;2022-10-31T04:23:02;17.00;;;7.00;;
21810;SDS011;11067;48.788;9.208;2022-10-31T04:25:29;14.13;;;6.47;;
21810;SDS011;11067;48.788;9.208;2022-10-31T04:27:54;13.70;;;7.07;;
21810;SDS011;11067;48.788;9.208;2022-10-31T04:30:20;13.17;;;6.67;;
21810;SDS011;11067;48.788;9.208;2022-10-31T04:32:46;12.65;;;6.93;;
21810;SDS011;11067;48.788;9.208;2022-10-31T04:35:12;13.88;;;6.88;;
21810;SDS011;11067;48.788;9.208;2022-10-31T04:37:38;11.90;;;6.30;;
21810;SDS011;11067;48.788;9.208;2022-10-31T04:40:04;13.55;;;6.70;;
21810;SDS011;11067;48.788;9.208;2022-10-31T04:42:30;11.52;;;6.70;;
21810;SDS011;11067;48.788;9.208;2022-10-31T04:44:55;15.68;;;7.05;;
21810;SDS011;11067;48.788;9.208;2022-10-31T04:47:21;16.00;;;7.00;;
21810;SDS011;11067;48.788;9.208;2022-10-31T04:49:47;19.27;;;7.00;;
21810;SDS011;11067;48.788;9.208;2022-10-31T04:52:12;13.93;;;7.37;;
21810;SDS011;11067;48.788;9.208;2022-10-31T04:54:38;15.47;;;7.10;;
21810;SDS011;11067;48.788;9.208;2022-10-31T04:57:04;16.60;;;7.13;;
21810;SDS011;11067;48.788;9.208;2022-10-31T04:59:29;12.30;;;7.07;;
21810;SDS011;11067;48.788;9.208;2022-10-31T05:01:55;13.15;;;7.00;;
21810;SDS011;11067;48.788;9.208;2022-10-31T05:04:20;13.60;;;7.20;;
21810;SDS011;11067;48.788;9.208;2022-10-31T05:06:46;14.20;;;7.23;;
21810;SDS011;11067;48.788;9.208;2022-10-31T05:09:11;19.60;;;6.60;;
21810;SDS011;11067;48.788;9.208;2022-10-31T05:11:37;11.13;;;6.63;;
21810;SDS011;11067;48.788;9.208;2022-10-31T05:14:02;11.83;;;6.33;;
21810;SDS011;11067;48.788;9.208;2022-10-31T05:16:28;12.10;;;6.57;;
21810;SDS011;11067;48.788;9.208;2022-10-31T05:18:54;11.63;;;6.13;;
21810;SDS011;11067;48.788;9.208;2022-10-31T05:21:19;15.13;;;6.53;;
21810;SDS011;11067;48.788;9.208;2022-10-31T05:23:45;12.97;;;6.30;;
21810;SDS011;11067;48.788;9.208;2022-10-31T05:26:10;11.60;;;6.55;;
21810;SDS011;11067;48.788;9.208;2022-10-31T05:28:36;15.75;;;7.00;;
21810;SDS011;11067;48.788;9.208;2022-10-31T05:31:01;12.67;;;6.73;;
21810;SDS011;11067;48.788;9.208;2022-10-31T05:33:27;13.27;;;6.33;;
21810;SDS011;11067;48.788;9.208;2022-10-31T05:35:52;12.93;;;6.63;;
21810;SDS011;11067;48.788;9.208;2022-10-31T05:38:18;16.90;;;7.50;;
21810;SDS011;11067;48.788;9.208;2022-10-31T05:40:44;12.80;;;6.93;;
21810;SDS011;11067;48.788;9.208;2022-10-31T05:43:09;15.23;;;7.40;;
21810;SDS011;11067;48.788;9.208;2022-10-31T05:45:35;14.13;;;6.90;;
21810;SDS011;11067;48.788;9.208;2022-10-31T05:48:01;12.82;;;7.53;;
21810;SDS011;11067;48.788;9.208;2022-10-31T05:50:28;11.80;;;7.28;;
21810;SDS011;11067;48.788;9.208;2022-10-31T05:52:55;13.20;;;6.75;;
21810;SDS011;11067;48.788;9.208;2022-10-31T05:55:22;14.90;;;7.07;;
21810;SDS011;11067;48.788;9.208;2022-10-31T05:57:48;16.17;;;7.90;;
21810;SDS011;11067;48.788;9.208;2022-10-31T06:00:13;11.82;;;6.90;;
21810;SDS011;11067;48.788;9.208;2022-10-31T06:02:39;16.20;;;7.28;;
21810;SDS011;11067;48.788;9.208;2022-10-31T06:05:05;16.43;;;7.97;;
21810;SDS011;11067;48.788;9.208;2022-10-31T06:07:36;15.57;;;7.70;;
21810;SDS011;11067;48.788;9.208;2022-10-31T06:10:03;18.85;;;9.15;;
21810;SDS011;11067;48.788;9.208;2022-10-31T06:12:31;19.45;;;7.85;;
21810;SDS011;11067;48.788;9.208;2022-10-31T06:14:56;16.23;;;7.35;;
21810;SDS011;11067;48.788;9.208;2022-10-31T06:17:22;15.80;;;7.50;;
21810;SDS011;11067;48.788;9.208;2022-10-31T06:19:48;17.73;;;7.50;;
21810;SDS011;11067;48.788;9.208;2022-10-31T06:22:14;15.25;;;7.40;;
21810;SDS011;11067;48.788;9.208;2022-10-31T06:24:39;14.63;;;7.37;;
21810;SDS011;11067;48.788;9.208;2022-10-31T06:27:05;13.67;;;6.83;;
21810;SDS011;11067;48.788;9.208;2022-10-31T06:29:30;16.65;;;7.03;;
21810;SDS011;11067;48.788;9.208;2022-10-31T06:31:56;17.40;;;7.10;;
21810;SDS011;11067;48.788;9.208;2022-10-31T06:34:21;10.98;;;6.70;;
21810;SDS011;11067;48.788;9.208;2022-10-31T06:36:47;14.63;;;7.73;;
21810;SDS011;11067;48.788;9.208;2022-10-31T06:39:13;16.10;;;7.63;;
21810;SDS011;11067;48.788;9.208;2022-10-31T06:41:39;10.43;;;6.97;;
21810;SDS011;11067;48.788;9.208;2022-10-31T06:44:06;13.43;;;6.10;;
21810;SDS011;11067;48.788;9.208;2022-10-31T06:46:33;8.73;;;6.13;;
21810;SDS011;11067;48.788;9.208;2022-10-31T06:48:58;13.73;;;6.93;;
21810;SDS011;11067;48.788;9.208;2022-10-31T06:51:24;12.50;;;6.70;;
21810;SDS011;11067;48.788;9.208;2022-10-31T06:53:50;13.27;;;6.30;;
21810;SDS011;11067;48.788;9.208;2022-10-31T06:56:15;11.73;;;6.50;;
21810;SDS011;11067;48.788;9.208;2022-10-31T06:58:43;12.80;;;6.30;;
21810;SDS011;11067;48.788;9.208;2022-10-31T07:01:08;10.27;;;6.50;;
21810;SDS011;11067;48.788;9.208;2022-10-31T07:03:34;11.80;;;6.07;;
21810;SDS011;11067;48.788;9.208;2022-10-31T07:05:59;12.07;;;6.57;;
21810;SDS011;11067;48.788;9.208;2022-10-31T07:08:25;11.18;;;6.75;;
21810;SDS011;11067;48.788;9.208;2022-10-31T07:10:52;16.55;;;7.32;;
21810;SDS011;11067;48.788;9.208;2022-10-31T07:13:18;10.07;;;6.50;;
21810;SDS011;11067;48.788;9.208;2022-10-31T07:15:49;11.60;;;6.60;;
21810;SDS011;11067;48.788;9.208;2022-10-31T07:18:15;10.18;;;6.15;;
21810;SDS011;11067;48.788;9.208;2022-10-31T07:20:41;12.07;;;7.40;;
21810;SDS011;11067;48.788;9.208;2022-10-31T07:23:07;13.20;;;6.60;;
21810;SDS011;11067;48.788;9.208;2022-10-31T07:25:35;12.40;;;7.90;;
21810;SDS011;11067;48.788;9.208;2022-10-31T07:28:00;13.17;;;5.80;;
21810;SDS011;11067;48.788;9.208;2022-10-31T07:30:26;10.17;;;5.80;;
21810;SDS011;11067;48.788;9.208;2022-10-31T07:32:51;11.00;;;6.63;;
21810;SDS011;11067;48.788;9.208;2022-10-31T07:35:19;10.70;;;5.43;;
21810;SDS011;11067;48.788;9.208;2022-10-31T07:37:46;13.77;;;5.82;;
21810;SDS011;11067;48.788;9.208;2022-10-31T07:40:12;12.87;;;5.60;;
21810;SDS011;11067;48.788;9.208;2022-10-31T07:42:39;12.43;;;6.10;;
21810;SDS011;11067;48.788;9.208;2022-10-31T07:45:09;13.20;;;5.57;;
21810;SDS011;11067;48.788;9.208;2022-10-31T07:47:43;9.02;;;5.60;;
21810;SDS011;11067;48.788;9.208;2022-10-31T07:50:17;10.10;;;5.60;;
21810;SDS011;11067;48.788;9.208;2022-10-31T07:52:46;10.23;;;5.68;;
21810;SDS011;11067;48.788;9.208;2022-10-31T07:55:12;12.33;;;5.70;;
21810;SDS011;11067;48.788;9.208;2022-10-31T07:57:39;14.45;;;6.07;;
21810;SDS011;11067;48.788;9.208;2022-10-31T08:00:06;9.23;;;5.60;;
21810;SDS011;11067;48.788;9.208;2022-10-31T08:02:33;11.93;;;6.22;;
21810;SDS011;11067;48.788;9.208;2022-10-31T08:04:59;10.68;;;5.78;;
21810;SDS011;11067;48.788;9.208;2022-10-31T08:07:26;10.60;;;6.68;;
21810;SDS011;11067;48.788;9.208;2022-10-31T08:09:53;11.50;;;5.90;;
21810;SDS011;11067;48.788;9.208;2022-10-31T08:12:19;12.40;;;5.65;;
21810;SDS011;11067;48.788;9.208;2022-10-31T08:14:44;9.57;;;5.75;;
21810;SDS011;11067;48.788;9.208;2022-10-31T08:17:10;12.55;;;5.95;;
21810;SDS011;11067;48.788;9.208;2022-10-31T08:19:36;7.43;;;5.10;;
21810;SDS011;11067;48.788;9.208;2022-10-31T08:22:01;9.27;;;5.30;;
21810;SDS011;11067;48.788;9.208;2022-10-31T08:24:27;9.10;;;5.30;;
21810;SDS011;11067;48.788;9.208;2022-10-31T08:26:53;7.83;;;5.33;;
21810;SDS011;11067;48.788;9.208;2022-10-31T08:29:18;8.07;;;5.20;;
21810;SDS011;11067;48.788;9.208;2022-10-31T08:31:44;9.40;;;5.25;;
21810;SDS011;11067;48.788;9.208;2022-10-31T08:34:09;8.90;;;4.55;;
21810;SDS011;11067;48.788;9.208;2022-10-31T08:36:35;8.07;;;4.60;;
21810;SDS011;11067;48.788;9.208;2022-10-31T08:39:01;8.27;;;4.60;;
21810;SDS011;11067;48.788;9.208;2022-10-31T08:41:27;7.50;;;4.60;;
21810;SDS011;11067;48.788;9.208;2022-10-31T08:43:53;10.48;;;4.95;;
21810;SDS011;11067;48.788;9.208;2022-10-31T08:46:19;11.43;;;5.15;;
21810;SDS011;11067;48.788;9.208;2022-10-31T08:48:46;9.47;;;5.57;;
21810;SDS011;11067;48.788;9.208;2022-10-31T08:51:12;15.93;;;6.18;;
21810;SDS011;11067;48.788;9.208;2022-10-31T08:53:38;12.13;;;5.63;;
21810;SDS011;11067;48.788;9.208;2022-10-31T08:56:04;12.60;;;5.60;;
21810;SDS011;11067;48.788;9.208;2022-10-31T08:58:29;14.53;;;6.00;;
21810;SDS011;11067;48.788;9.208;2022-10-31T09:00:55;6.75;;;5.13;;
21810;SDS011;11067;48.788;9.208;2022-10-31T09:03:27;13.80;;;5.85;;
21810;SDS011;11067;48.788;9.208;2022-10-31T09:05:55;10.30;;;5.77;;
21810;SDS011;11067;48.788;9.208;2022-10-31T09:08:22;10.65;;;5.38;;
21810;SDS011;11067;48.788;9.208;2022-10-31T09:10:48;11.70;;;5.30;;
21810;SDS011;11067;48.788;9.208;2022-10-31T09:13:15;9.73;;;5.67;;
21810;SDS011;11067;48.788;9.208;2022-10-31T09:15:43;11.55;;;5.80;;
21810;SDS011;11067;48.788;9.208;2022-10-31T09:18:10;8.95;;;5.10;;
21810;SDS011;11067;48.788;9.208;2022-10-31T09:20:37;8.55;;;5.35;;
21810;SDS011;11067;48.788;9.208;2022-10-31T09:23:05;10.88;;;5.40;;
21810;SDS011;11067;48.788;9.208;2022-10-31T09:25:34;10.13;;;5.35;;
21810;SDS011;11067;48.788;9.208;2022-10-31T09:28:00;11.05;;;4.90;;
21810;SDS011;11067;48.788;9.208;2022-10-31T09:30:27;9.32;;;5.10;;
21810;SDS011;11067;48.788;9.208;2022-10-31T09:32:55;8.52;;;5.47;;
21810;SDS011;11067;48.788;9.208;2022-10-31T09:35:21;8.90;;;5.03;;
21810;SDS011;11067;48.788;9.208;2022-10-31T09:37:47;12.23;;;5.57;;
21810;SDS011;11067;48.788;9.208;2022-10-31T09:40:18;9.60;;;5.25;;
21810;SDS011;11067;48.788;9.208;2022-10-31T09:42:52;9.60;;;5.40;;
21810;SDS011;11067;48.788;9.208;2022-10-31T09:45:43;10.02;;;5.88;;
21810;SDS011;11067;48.788;9.208;2022-10-31T09:51:03;8.35;;;5.35;;
21810;SDS011;11067;48.788;9.208;2022-10-31T09:56:14;13.25;;;5.55;;
21810;SDS011;11067;48.788;9.208;2022-10-31T09:58:44;9.15;;;5.30;;
21810;SDS011;11067;48.788;9.208;2022-10-31T10:01:20;7.55;;;5.20;;
21810;SDS011;11067;48.788;9.208;2022-10-31T10:03:53;9.10;;;5.10;;
21810;SDS011;11067;48.788;9.208;2022-10-31T10:06:24;12.80;;;5.65;;
21810;SDS011;11067;48.788;9.208;2022-10-31T10:08:54;9.15;;;5.72;;
21810;SDS011;11067;48.788;9.208;2022-10-31T10:14:11;9.90;;;6.43;;
21810;SDS011;11067;48.788;9.208;2022-10-31T10:20:18;15.68;;;6.38;;
21810;SDS011;11067;48.788;9.208;2022-10-31T10:23:07;10.95;;;6.03;;
21810;SDS011;11067;48.788;9.208;2022-10-31T10:25:57;14.68;;;6.55;;
21810;SDS011;11067;48.788;9.208;2022-10-31T10:28:31;11.10;;;6.25;;
21810;SDS011;11067;48.788;9.208;2022-10-31T10:33:39;16.07;;;6.60;;
21810;SDS011;11067;48.788;9.208;2022-10-31T10:36:13;13.25;;;6.07;;
21810;SDS011;11067;48.788;9.208;2022-10-31T10:38:56;9.52;;;5.35;;
21810;SDS011;11067;48.788;9.208;2022-10-31T10:41:27;11.75;;;6.43;;
21810;SDS011;11067;48.788;9.208;2022-10-31T10:43:56;12.60;;;5.90;;
21810;SDS011;11067;48.788;9.208;2022-10-31T10:46:40;11.35;;;5.88;;
21810;SDS011;11067;48.788;9.208;2022-10-31T10:49:45;10.47;;;5.87;;
21810;SDS011;11067;48.788;9.208;2022-10-31T10:52:37;12.15;;;5.75;;
21810;SDS011;11067;48.788;9.208;2022-10-31T10:57:47;10.82;;;5.65;;
21810;SDS011;11067;48.788;9.208;2022-10-31T11:00:22;12.73;;;6.20;;
21810;SDS011;11067;48.788;9.208;2022-10-31T11:02:49;16.10;;;7.93;;
21810;SDS011;11067;48.788;9.208;2022-10-31T11:05:26;11.57;;;6.50;;
21810;SDS011;11067;48.788;9.208;2022-10-31T11:07:57;12.33;;;6.47;;
21810;SDS011;11067;48.788;9.208;2022-10-31T11:10:23;9.60;;;6.53;;
21810;SDS011;11067;48.788;9.208;2022-10-31T11:18:51;15.03;;;7.00;;
21810;SDS011;11067;48.788;9.208;2022-10-31T11:21:28;14.70;;;7.17;;
21810;SDS011;11067;48.788;9.208;2022-10-31T11:26:35;13.30;;;6.47;;
21810;SDS011;11067;48.788;9.208;2022-10-31T11:29:03;14.77;;;6.88;;
21810;SDS011;11067;48.788;9.208;2022-10-31T11:31:30;13.90;;;6.97;;
21810;SDS011;11067;48.788;9.208;2022-10-31T11:36:27;15.23;;;6.68;;
21810;SDS011;11067;48.788;9.208;2022-10-31T11:38:56;14.63;;;6.68;;
21810;SDS011;11067;48.788;9.208;2022-10-31T11:41:30;15.98;;;7.38;;
21810;SDS011;11067;48.788;9.208;2022-10-31T11:44:02;14.60;;;6.57;;
21810;SDS011;11067;48.788;9.208;2022-10-31T11:46:41;14.73;;;6.97;;
21810;SDS011;11067;48.788;9.208;2022-10-31T11:49:52;12.97;;;5.93;;
21810;SDS011;11067;48.788;9.208;2022-10-31T11:52:17;12.57;;;6.35;;
21810;SDS011;11067;48.788;9.208;2022-10-31T11:54:53;12.83;;;6.50;;
21810;SDS011;11067;48.788;9.208;2022-10-31T11:57:41;12.52;;;6.88;;
21810;SDS011;11067;48.788;9.208;2022-10-31T12:00:20;15.35;;;5.90;;
21810;SDS011;11067;48.788;9.208;2022-10-31T12:02:49;14.32;;;6.35;;
21810;SDS011;11067;48.788;9.208;2022-10-31T12:05:18;10.55;;;6.70;;
21810;SDS011;11067;48.788;9.208;2022-10-31T12:07:48;13.95;;;6.70;;
21810;SDS011;11067;48.788;9.208;2022-10-31T12:10:14;12.45;;;6.53;;
21810;SDS011;11067;48.788;9.208;2022-10-31T12:15:33;17.83;;;6.93;;
21810;SDS011;11067;48.788;9.208;2022-10-31T12:20:54;13.27;;;6.30;;
21810;SDS011;11067;48.788;9.208;2022-10-31T12:34:44;14.27;;;6.40;;
21810;SDS011;11067;48.788;9.208;2022-10-31T12:45:59;12.15;;;6.47;;
21810;SDS011;11067;48.788;9.208;2022-10-31T12:48:42;13.50;;;6.80;;
21810;SDS011;11067;48.788;9.208;2022-10-31T12:51:37;11.25;;;6.65;;
21810;SDS011;11067;48.788;9.208;2022-10-31T12:54:16;15.13;;;6.45;;
21810;SDS011;11067;48.788;9.208;2022-10-31T12:57:16;13.85;;;6.47;;
21810;SDS011;11067;48.788;9.208;2022-10-31T13:00:01;14.47;;;6.30;;
21810;SDS011;11067;48.788;9.208;2022-10-31T13:02:38;18.53;;;7.00;;
21810;SDS011;11067;48.788;9.208;2022-10-31T13:06:01;11.57;;;6.03;;
21810;SDS011;11067;48.788;9.208;2022-10-31T13:08:14;15.85;;;7.43;;
21810;SDS011;11067;48.788;9.208;2022-10-31T13:10:51;15.70;;;9.20;;
21810;SDS011;11067;48.788;9.208;2022-10-31T13:13:27;11.35;;;6.00;;
21810;SDS011;11067;48.788;9.208;2022-10-31T13:15:58;12.57;;;6.25;;
21810;SDS011;11067;48.788;9.208;2022-10-31T13:18:32;13.03;;;6.37;;
21810;SDS011;11067;48.788;9.208;2022-10-31T13:21:03;10.38;;;6.13;;
21810;SDS011;11067;48.788;9.208;2022-10-31T13:23:41;14.33;;;6.80;;
21810;SDS011;11067;48.788;9.208;2022-10-31T13:26:15;12.60;;;6.57;;
21810;SDS011;11067;48.788;9.208;2022-10-31T13:28:59;14.30;;;6.82;;
21810;SDS011;11067;48.788;9.208;2022-10-31T13:31:34;16.98;;;6.97;;
21810;SDS011;11067;48.788;9.208;2022-10-31T13:34:03;14.60;;;6.87;;
21810;SDS011;11067;48.788;9.208;2022-10-31T13:39:03;14.65;;;6.50;;
21810;SDS011;11067;48.788;9.208;2022-10-31T13:42:01;14.65;;;6.40;;
21810;SDS011;11067;48.788;9.208;2022-10-31T13:44:43;14.57;;;6.80;;
21810;SDS011;11067;48.788;9.208;2022-10-31T13:47:22;11.20;;;6.23;;
21810;SDS011;11067;48.788;9.208;2022-10-31T13:50:03;14.48;;;6.75;;
21810;SDS011;11067;48.788;9.208;2022-10-31T13:52:49;16.63;;;6.70;;
21810;SDS011;11067;48.788;9.208;2022-10-31T13:58:16;19.17;;;7.33;;
21810;SDS011;11067;48.788;9.208;2022-10-31T14:01:02;15.93;;;7.00;;
21810;SDS011;11067;48.788;9.208;2022-10-31T14:03:39;14.98;;;7.03;;
21810;SDS011;11067;48.788;9.208;2022-10-31T14:06:06;16.02;;;6.95;;
21810;SDS011;11067;48.788;9.208;2022-10-31T14:08:34;15.80;;;6.82;;
21810;SDS011;11067;48.788;9.208;2022-10-31T14:11:02;17.08;;;6.70;;
21810;SDS011;11067;48.788;9.208;2022-10-31T14:13:31;17.97;;;6.53;;
21810;SDS011;11067;48.788;9.208;2022-10-31T14:16:05;17.20;;;8.15;;
21810;SDS011;11067;48.788;9.208;2022-10-31T14:18:43;14.60;;;7.18;;
21810;SDS011;11067;48.788;9.208;2022-10-31T14:23:55;17.33;;;7.38;;
21810;SDS011;11067;48.788;9.208;2022-10-31T14:28:56;16.65;;;7.53;;
21810;SDS011;11067;48.788;9.208;2022-10-31T14:34:00;18.13;;;7.25;;
21810;SDS011;11067;48.788;9.208;2022-10-31T14:47:16;13.27;;;7.82;;
21810;SDS011;11067;48.788;9.208;2022-10-31T14:49:56;17.30;;;8.00;;
21810;SDS011;11067;48.788;9.208;2022-10-31T14:52:37;15.45;;;7.18;;
21810;SDS011;11067;48.788;9.208;2022-10-31T14:55:05;14.95;;;7.40;;
21810;SDS011;11067;48.788;9.208;2022-10-31T14:57:35;14.48;;;7.10;;
21810;SDS011;11067;48.788;9.208;2022-10-31T15:00:06;13.32;;;7.55;;
21810;SDS011;11067;48.788;9.208;2022-10-31T15:02:34;15.17;;;8.20;;
21810;SDS011;11067;48.788;9.208;2022-10-31T15:05:08;15.00;;;7.30;;
21810;SDS011;11067;48.788;9.208;2022-10-31T15:07:36;13.63;;;7.50;;
21810;SDS011;11067;48.788;9.208;2022-10-31T15:10:31;18.70;;;8.30;;
21810;SDS011;11067;48.788;9.208;2022-10-31T15:13:10;14.82;;;7.60;;
21810;SDS011;11067;48.788;9.208;2022-10-31T15:15:46;14.37;;;8.23;;
21810;SDS011;11067;48.788;9.208;2022-10-31T15:18:20;20.17;;;8.03;;
21810;SDS011;11067;48.788;9.208;2022-10-31T15:20:50;22.10;;;13.10;;
21810;SDS011;11067;48.788;9.208;2022-10-31T15:23:25;14.20;;;7.45;;
21810;SDS011;11067;48.788;9.208;2022-10-31T15:25:59;17.42;;;8.32;;
21810;SDS011;11067;48.788;9.208;2022-10-31T15:28:26;18.90;;;9.10;;
21810;SDS011;11067;48.788;9.208;2022-10-31T15:30:53;18.87;;;9.00;;
21810;SDS011;11067;48.788;9.208;2022-10-31T15:33:21;17.40;;;8.73;;
21810;SDS011;11067;48.788;9.208;2022-10-31T15:35:58;19.40;;;9.15;;
21810;SDS011;11067;48.788;9.208;2022-10-31T15:38:26;16.15;;;8.70;;
21810;SDS011;11067;48.788;9.208;2022-10-31T15:40:54;17.80;;;8.73;;
21810;SDS011;11067;48.788;9.208;2022-10-31T15:43:23;20.70;;;9.60;;
21810;SDS011;11067;48.788;9.208;2022-10-31T15:45:48;21.50;;;9.73;;
21810;SDS011;11067;48.788;9.208;2022-10-31T15:48:16;19.83;;;9.38;;
21810;SDS011;11067;48.788;9.208;2022-10-31T15:50:47;16.75;;;8.50;;
21810;SDS011;11067;48.788;9.208;2022-10-31T15:53:24;15.53;;;8.90;;
21810;SDS011;11067;48.788;9.208;2022-10-31T15:56:02;17.70;;;8.77;;
21810;SDS011;11067;48.788;9.208;2022-10-31T15:58:32;14.15;;;8.50;;
21810;SDS011;11067;48.788;9.208;2022-10-31T16:01:05;21.30;;;9.57;;
21810;SDS011;11067;48.788;9.208;2022-10-31T16:03:43;20.85;;;9.10;;
21810;SDS011;11067;48.788;9.208;2022-10-31T16:06:21;18.58;;;9.52;;
21810;SDS011;11067;48.788;9.208;2022-10-31T16:08:47;17.33;;;9.10;;
21810;SDS011;11067;48.788;9.208;2022-10-31T16:11:21;16.48;;;8.55;;
21810;SDS011;11067;48.788;9.208;2022-10-31T16:14:14;19.48;;;11.55;;
21810;SDS011;11067;48.788;9.208;2022-10-31T16:16:46;29.70;;;15.68;;
21810;SDS011;11067;48.788;9.208;2022-10-31T16:19:20;20.10;;;10.23;;
21810;SDS011;11067;48.788;9.208;2022-10-31T16:21:52;22.60;;;10.65;;
21810;SDS011;11067;48.788;9.208;2022-10-31T16:24:22;18.92;;;10.02;;
21810;SDS011;11067;48.788;9.208;2022-10-31T16:26:55;20.33;;;9.93;;
21810;SDS011;11067;48.788;9.208;2022-10-31T16:29:34;22.17;;;10.83;;
21810;SDS011;11067;48.788;9.208;2022-10-31T16:32:04;22.52;;;10.50;;
21810;SDS011;11067;48.788;9.208;2022-10-31T16:34:56;24.45;;;9.95;;
21810;SDS011;11067;48.788;9.208;2022-10-31T16:37:23;20.38;;;10.55;;
21810;SDS011;11067;48.788;9.208;2022-10-31T16:39:49;20.10;;;9.90;;
21810;SDS011;11067;48.788;9.208;2022-10-31T16:42:14;24.20;;;10.80;;
21810;SDS011;11067;48.788;9.208;2022-10-31T16:44:40;16.97;;;10.43;;